sensor_id;sensor_type;location;lat;lon;timestamp;P1;durP1;ratioP1;P2;durP2;ratioP2
59766;SDS011;46248;58.364;25.582;2023-06-04T00:01:34;3.05;;;1.13;;
59766;SDS011;46248;58.364;25.582;2023-06-04T00:04:57;1.95;;;0.90;;
59766;SDS011;46248;58.364;25.582;2023-06-04T00:08:21;0.82;;;0.80;;
59766;SDS011;46248;58.364;25.582;2023-06-04T00:11:44;3.00;;;1.30;;
59766;SDS011;46248;58.364;25.582;2023-06-04T00:15:07;1.33;;;0.80;;
59766;SDS011;46248;58.364;25.582;2023-06-04T00:18:30;1.70;;;0.75;;
59766;SDS011;46248;58.364;25.582;2023-06-04T00:21:54;2.10;;;1.25;;
59766;SDS011;46248;58.364;25.582;2023-06-04T00:25:18;1.35;;;1.10;;
59766;SDS011;46248;58.364;25.582;2023-06-04T00:28:41;1.38;;;1.20;;
59766;SDS011;46248;58.364;25.582;2023-06-04T00:32:04;3.00;;;1.10;;
59766;SDS011;46248;58.364;25.582;2023-06-04T00:35:27;3.03;;;1.05;;
59766;SDS011;46248;58.364;25.582;2023-06-04T00:38:50;2.95;;;0.82;;
59766;SDS011;46248;58.364;25.582;2023-06-04T00:42:15;0.88;;;0.80;;
59766;SDS011;46248;58.364;25.582;2023-06-04T00:45:37;1.35;;;1.00;;
59766;SDS011;46248;58.364;25.582;2023-06-04T00:49:00;2.25;;;1.05;;
59766;SDS011;46248;58.364;25.582;2023-06-04T00:52:23;1.42;;;1.10;;
59766;SDS011;46248;58.364;25.582;2023-06-04T00:55:46;1.92;;;0.88;;
59766;SDS011;46248;58.364;25.582;2023-06-04T00:59:10;0.95;;;0.75;;
59766;SDS011;46248;58.364;25.582;2023-06-04T01:02:34;1.73;;;0.80;;
59766;SDS011;46248;58.364;25.582;2023-06-04T01:06:01;2.25;;;0.90;;
59766;SDS011;46248;58.364;25.582;2023-06-04T01:09:35;1.33;;;0.98;;
59766;SDS011;46248;58.364;25.582;2023-06-04T01:12:58;1.20;;;0.75;;
59766;SDS011;46248;58.364;25.582;2023-06-04T01:16:23;2.15;;;1.00;;
59766;SDS011;46248;58.364;25.582;2023-06-04T01:23:40;2.25;;;1.10;;
59766;SDS011;46248;58.364;25.582;2023-06-04T01:27:10;3.78;;;1.38;;
59766;SDS011;46248;58.364;25.582;2023-06-04T01:30:36;1.73;;;1.30;;
59766;SDS011;46248;58.364;25.582;2023-06-04T01:34:07;3.38;;;1.33;;
59766;SDS011;46248;58.364;25.582;2023-06-04T01:37:30;1.60;;;1.10;;
59766;SDS011;46248;58.364;25.582;2023-06-04T01:40:52;3.03;;;1.23;;
59766;SDS011;46248;58.364;25.582;2023-06-04T01:44:18;1.65;;;1.25;;
59766;SDS011;46248;58.364;25.582;2023-06-04T01:47:40;3.03;;;1.20;;
59766;SDS011;46248;58.364;25.582;2023-06-04T01:51:05;1.80;;;1.42;;
59766;SDS011;46248;58.364;25.582;2023-06-04T01:54:28;2.00;;;1.30;;
59766;SDS011;46248;58.364;25.582;2023-06-04T01:57:53;2.67;;;1.23;;
59766;SDS011;46248;58.364;25.582;2023-06-04T02:01:17;2.75;;;1.33;;
59766;SDS011;46248;58.364;25.582;2023-06-04T02:04:40;4.85;;;1.48;;
59766;SDS011;46248;58.364;25.582;2023-06-04T02:08:05;1.85;;;1.20;;
59766;SDS011;46248;58.364;25.582;2023-06-04T02:11:29;3.75;;;1.83;;
59766;SDS011;46248;58.364;25.582;2023-06-04T02:14:52;1.42;;;1.23;;
59766;SDS011;46248;58.364;25.582;2023-06-04T02:18:17;3.53;;;1.67;;
59766;SDS011;46248;58.364;25.582;2023-06-04T02:21:41;2.42;;;1.17;;
59766;SDS011;46248;58.364;25.582;2023-06-04T02:25:06;5.18;;;2.03;;
59766;SDS011;46248;58.364;25.582;2023-06-04T02:28:30;3.97;;;1.75;;
59766;SDS011;46248;58.364;25.582;2023-06-04T02:31:53;3.30;;;1.48;;
59766;SDS011;46248;58.364;25.582;2023-06-04T02:35:16;3.95;;;1.65;;
59766;SDS011;46248;58.364;25.582;2023-06-04T02:38:39;2.65;;;1.38;;
59766;SDS011;46248;58.364;25.582;2023-06-04T02:42:03;1.67;;;1.38;;
59766;SDS011;46248;58.364;25.582;2023-06-04T02:45:27;2.33;;;1.52;;
59766;SDS011;46248;58.364;25.582;2023-06-04T02:48:50;3.85;;;1.60;;
59766;SDS011;46248;58.364;25.582;2023-06-04T02:52:13;1.10;;;1.00;;
59766;SDS011;46248;58.364;25.582;2023-06-04T02:55:36;1.90;;;1.42;;
59766;SDS011;46248;58.364;25.582;2023-06-04T02:59:01;2.58;;;1.25;;
59766;SDS011;46248;58.364;25.582;2023-06-04T03:02:24;2.00;;;1.33;;
59766;SDS011;46248;58.364;25.582;2023-06-04T03:05:47;2.20;;;1.23;;
59766;SDS011;46248;58.364;25.582;2023-06-04T03:09:11;2.42;;;1.50;;
59766;SDS011;46248;58.364;25.582;2023-06-04T03:12:34;1.77;;;1.45;;
59766;SDS011;46248;58.364;25.582;2023-06-04T03:15:59;2.25;;;1.20;;
59766;SDS011;46248;58.364;25.582;2023-06-04T03:19:23;3.47;;;1.58;;
59766;SDS011;46248;58.364;25.582;2023-06-04T03:22:46;3.00;;;1.88;;
59766;SDS011;46248;58.364;25.582;2023-06-04T03:26:09;2.17;;;1.63;;
59766;SDS011;46248;58.364;25.582;2023-06-04T03:29:33;3.60;;;1.20;;
59766;SDS011;46248;58.364;25.582;2023-06-04T03:32:58;5.38;;;1.70;;
59766;SDS011;46248;58.364;25.582;2023-06-04T03:36:21;7.53;;;2.00;;
59766;SDS011;46248;58.364;25.582;2023-06-04T03:39:52;3.20;;;2.00;;
59766;SDS011;46248;58.364;25.582;2023-06-04T03:43:14;4.07;;;2.17;;
59766;SDS011;46248;58.364;25.582;2023-06-04T03:46:37;4.25;;;1.52;;
59766;SDS011;46248;58.364;25.582;2023-06-04T03:50:02;2.75;;;1.50;;
59766;SDS011;46248;58.364;25.582;2023-06-04T03:53:25;2.72;;;1.70;;
59766;SDS011;46248;58.364;25.582;2023-06-04T03:56:48;3.35;;;1.65;;
59766;SDS011;46248;58.364;25.582;2023-06-04T04:00:11;3.67;;;1.55;;
59766;SDS011;46248;58.364;25.582;2023-06-04T04:03:35;4.20;;;1.95;;
59766;SDS011;46248;58.364;25.582;2023-06-04T04:07:00;4.00;;;2.00;;
59766;SDS011;46248;58.364;25.582;2023-06-04T04:10:23;7.88;;;2.13;;
59766;SDS011;46248;58.364;25.582;2023-06-04T04:13:46;3.88;;;1.95;;
59766;SDS011;46248;58.364;25.582;2023-06-04T04:17:10;3.17;;;1.63;;
59766;SDS011;46248;58.364;25.582;2023-06-04T04:20:33;3.45;;;1.52;;
59766;SDS011;46248;58.364;25.582;2023-06-04T04:23:57;2.15;;;1.83;;
59766;SDS011;46248;58.364;25.582;2023-06-04T04:27:20;3.63;;;2.15;;
59766;SDS011;46248;58.364;25.582;2023-06-04T04:30:43;2.10;;;1.42;;
59766;SDS011;46248;58.364;25.582;2023-06-04T04:34:06;2.20;;;2.00;;
59766;SDS011;46248;58.364;25.582;2023-06-04T04:37:29;4.78;;;2.22;;
59766;SDS011;46248;58.364;25.582;2023-06-04T04:40:55;2.00;;;1.60;;
59766;SDS011;46248;58.364;25.582;2023-06-04T04:44:19;2.25;;;1.73;;
59766;SDS011;46248;58.364;25.582;2023-06-04T04:47:42;3.00;;;1.70;;
59766;SDS011;46248;58.364;25.582;2023-06-04T04:51:05;2.13;;;1.75;;
59766;SDS011;46248;58.364;25.582;2023-06-04T04:54:28;4.10;;;1.70;;
59766;SDS011;46248;58.364;25.582;2023-06-04T04:57:52;3.97;;;2.15;;
59766;SDS011;46248;58.364;25.582;2023-06-04T05:01:15;2.53;;;1.58;;
59766;SDS011;46248;58.364;25.582;2023-06-04T05:04:38;2.33;;;1.67;;
59766;SDS011;46248;58.364;25.582;2023-06-04T05:08:01;3.17;;;1.60;;
59766;SDS011;46248;58.364;25.582;2023-06-04T05:11:24;4.07;;;2.17;;
59766;SDS011;46248;58.364;25.582;2023-06-04T05:14:48;5.07;;;1.90;;
59766;SDS011;46248;58.364;25.582;2023-06-04T05:18:11;1.88;;;1.23;;
59766;SDS011;46248;58.364;25.582;2023-06-04T05:21:34;2.35;;;1.52;;
59766;SDS011;46248;58.364;25.582;2023-06-04T05:24:57;1.63;;;1.38;;
59766;SDS011;46248;58.364;25.582;2023-06-04T05:28:20;1.90;;;1.38;;
59766;SDS011;46248;58.364;25.582;2023-06-04T05:31:47;2.63;;;1.73;;
59766;SDS011;46248;58.364;25.582;2023-06-04T05:35:10;2.70;;;1.63;;
59766;SDS011;46248;58.364;25.582;2023-06-04T05:38:33;2.75;;;2.00;;
59766;SDS011;46248;58.364;25.582;2023-06-04T05:41:56;6.28;;;3.67;;
59766;SDS011;46248;58.364;25.582;2023-06-04T05:45:19;7.00;;;4.13;;
59766;SDS011;46248;58.364;25.582;2023-06-04T05:48:43;3.15;;;2.63;;
59766;SDS011;46248;58.364;25.582;2023-06-04T05:52:06;3.67;;;2.45;;
59766;SDS011;46248;58.364;25.582;2023-06-04T05:55:29;8.38;;;5.72;;
59766;SDS011;46248;58.364;25.582;2023-06-04T05:58:52;6.22;;;4.45;;
59766;SDS011;46248;58.364;25.582;2023-06-04T06:02:15;3.65;;;2.53;;
59766;SDS011;46248;58.364;25.582;2023-06-04T06:05:39;3.20;;;2.22;;
59766;SDS011;46248;58.364;25.582;2023-06-04T06:09:02;2.55;;;1.63;;
59766;SDS011;46248;58.364;25.582;2023-06-04T06:12:25;3.35;;;1.33;;
59766;SDS011;46248;58.364;25.582;2023-06-04T06:15:48;2.88;;;1.40;;
59766;SDS011;46248;58.364;25.582;2023-06-04T06:19:13;2.67;;;1.10;;
59766;SDS011;46248;58.364;25.582;2023-06-04T06:22:39;1.65;;;1.55;;
59766;SDS011;46248;58.364;25.582;2023-06-04T06:26:02;3.25;;;2.13;;
59766;SDS011;46248;58.364;25.582;2023-06-04T06:29:28;4.95;;;1.80;;
59766;SDS011;46248;58.364;25.582;2023-06-04T06:32:51;3.47;;;1.80;;
59766;SDS011;46248;58.364;25.582;2023-06-04T06:36:16;4.55;;;1.42;;
59766;SDS011;46248;58.364;25.582;2023-06-04T06:39:40;4.32;;;1.70;;
59766;SDS011;46248;58.364;25.582;2023-06-04T06:43:03;3.03;;;1.67;;
59766;SDS011;46248;58.364;25.582;2023-06-04T06:46:26;1.90;;;1.70;;
59766;SDS011;46248;58.364;25.582;2023-06-04T06:49:49;5.40;;;1.60;;
59766;SDS011;46248;58.364;25.582;2023-06-04T06:53:12;2.92;;;1.48;;
59766;SDS011;46248;58.364;25.582;2023-06-04T06:56:37;5.13;;;1.73;;
59766;SDS011;46248;58.364;25.582;2023-06-04T07:00:00;3.85;;;2.10;;
59766;SDS011;46248;58.364;25.582;2023-06-04T07:03:23;2.35;;;1.23;;
59766;SDS011;46248;58.364;25.582;2023-06-04T07:06:46;3.67;;;2.00;;
59766;SDS011;46248;58.364;25.582;2023-06-04T07:10:09;6.18;;;2.65;;
59766;SDS011;46248;58.364;25.582;2023-06-04T07:13:33;4.32;;;2.25;;
59766;SDS011;46248;58.364;25.582;2023-06-04T07:16:56;4.45;;;2.25;;
59766;SDS011;46248;58.364;25.582;2023-06-04T07:20:19;2.80;;;1.95;;
59766;SDS011;46248;58.364;25.582;2023-06-04T07:23:42;4.68;;;1.92;;
59766;SDS011;46248;58.364;25.582;2023-06-04T07:27:10;4.65;;;2.42;;
59766;SDS011;46248;58.364;25.582;2023-06-04T07:30:35;2.13;;;1.60;;
59766;SDS011;46248;58.364;25.582;2023-06-04T07:33:58;3.53;;;1.88;;
59766;SDS011;46248;58.364;25.582;2023-06-04T07:37:20;5.25;;;2.28;;
59766;SDS011;46248;58.364;25.582;2023-06-04T07:40:45;5.63;;;2.13;;
59766;SDS011;46248;58.364;25.582;2023-06-04T07:44:08;3.17;;;2.10;;
59766;SDS011;46248;58.364;25.582;2023-06-04T07:47:32;3.78;;;2.10;;
59766;SDS011;46248;58.364;25.582;2023-06-04T07:50:55;2.70;;;1.80;;
59766;SDS011;46248;58.364;25.582;2023-06-04T07:54:19;5.28;;;1.88;;
59766;SDS011;46248;58.364;25.582;2023-06-04T07:57:43;6.18;;;2.50;;
59766;SDS011;46248;58.364;25.582;2023-06-04T08:01:06;3.92;;;2.28;;
59766;SDS011;46248;58.364;25.582;2023-06-04T08:04:31;3.95;;;1.90;;
59766;SDS011;46248;58.364;25.582;2023-06-04T08:07:54;3.35;;;1.75;;
59766;SDS011;46248;58.364;25.582;2023-06-04T08:11:17;5.57;;;2.10;;
59766;SDS011;46248;58.364;25.582;2023-06-04T08:14:40;3.53;;;2.13;;
59766;SDS011;46248;58.364;25.582;2023-06-04T08:18:03;3.83;;;2.13;;
59766;SDS011;46248;58.364;25.582;2023-06-04T08:21:29;6.55;;;4.63;;
59766;SDS011;46248;58.364;25.582;2023-06-04T08:24:52;6.38;;;3.70;;
59766;SDS011;46248;58.364;25.582;2023-06-04T08:28:17;3.88;;;2.70;;
59766;SDS011;46248;58.364;25.582;2023-06-04T08:31:41;3.22;;;2.40;;
59766;SDS011;46248;58.364;25.582;2023-06-04T08:35:05;6.03;;;2.47;;
59766;SDS011;46248;58.364;25.582;2023-06-04T08:38:30;2.75;;;1.90;;
59766;SDS011;46248;58.364;25.582;2023-06-04T08:41:54;2.80;;;1.48;;
59766;SDS011;46248;58.364;25.582;2023-06-04T08:45:22;1.55;;;1.45;;
59766;SDS011;46248;58.364;25.582;2023-06-04T08:48:46;4.28;;;2.55;;
59766;SDS011;46248;58.364;25.582;2023-06-04T08:52:10;7.07;;;2.33;;
59766;SDS011;46248;58.364;25.582;2023-06-04T08:55:35;9.27;;;5.10;;
59766;SDS011;46248;58.364;25.582;2023-06-04T08:58:59;5.10;;;3.38;;
59766;SDS011;46248;58.364;25.582;2023-06-04T09:02:23;5.18;;;2.58;;
59766;SDS011;46248;58.364;25.582;2023-06-04T09:05:50;4.18;;;2.10;;
59766;SDS011;46248;58.364;25.582;2023-06-04T09:09:14;3.70;;;2.80;;
59766;SDS011;46248;58.364;25.582;2023-06-04T09:12:41;4.80;;;3.92;;
59766;SDS011;46248;58.364;25.582;2023-06-04T09:16:05;2.53;;;1.75;;
59766;SDS011;46248;58.364;25.582;2023-06-04T09:19:28;1.55;;;1.45;;
59766;SDS011;46248;58.364;25.582;2023-06-04T09:22:51;1.25;;;1.15;;
59766;SDS011;46248;58.364;25.582;2023-06-04T09:26:14;2.70;;;1.33;;
59766;SDS011;46248;58.364;25.582;2023-06-04T09:29:39;2.67;;;1.70;;
59766;SDS011;46248;58.364;25.582;2023-06-04T09:33:06;5.10;;;2.17;;
59766;SDS011;46248;58.364;25.582;2023-06-04T09:36:30;2.90;;;1.60;;
59766;SDS011;46248;58.364;25.582;2023-06-04T09:39:53;3.95;;;1.40;;
59766;SDS011;46248;58.364;25.582;2023-06-04T09:43:23;1.58;;;1.30;;
59766;SDS011;46248;58.364;25.582;2023-06-04T09:50:17;2.05;;;1.85;;
59766;SDS011;46248;58.364;25.582;2023-06-04T09:53:55;2.03;;;1.83;;
59766;SDS011;46248;58.364;25.582;2023-06-04T09:57:19;1.50;;;1.40;;
59766;SDS011;46248;58.364;25.582;2023-06-04T10:00:43;1.75;;;1.30;;
59766;SDS011;46248;58.364;25.582;2023-06-04T10:04:09;2.40;;;1.42;;
59766;SDS011;46248;58.364;25.582;2023-06-04T10:07:35;5.88;;;4.18;;
59766;SDS011;46248;58.364;25.582;2023-06-04T10:11:01;2.53;;;2.25;;
59766;SDS011;46248;58.364;25.582;2023-06-04T10:14:27;3.72;;;3.20;;
59766;SDS011;46248;58.364;25.582;2023-06-04T10:17:57;3.88;;;3.47;;
59766;SDS011;46248;58.364;25.582;2023-06-04T10:21:21;4.68;;;4.28;;
59766;SDS011;46248;58.364;25.582;2023-06-04T10:24:45;5.35;;;3.63;;
59766;SDS011;46248;58.364;25.582;2023-06-04T10:28:08;6.15;;;5.28;;
59766;SDS011;46248;58.364;25.582;2023-06-04T10:31:31;2.83;;;2.30;;
59766;SDS011;46248;58.364;25.582;2023-06-04T10:34:54;3.42;;;2.05;;
59766;SDS011;46248;58.364;25.582;2023-06-04T10:38:19;3.03;;;1.55;;
59766;SDS011;46248;58.364;25.582;2023-06-04T10:41:43;2.10;;;1.65;;
59766;SDS011;46248;58.364;25.582;2023-06-04T10:45:06;1.40;;;1.30;;
59766;SDS011;46248;58.364;25.582;2023-06-04T10:48:32;2.60;;;1.55;;
59766;SDS011;46248;58.364;25.582;2023-06-04T10:51:55;2.00;;;1.33;;
59766;SDS011;46248;58.364;25.582;2023-06-04T10:55:25;3.13;;;1.08;;
59766;SDS011;46248;58.364;25.582;2023-06-04T10:58:48;1.60;;;1.10;;
59766;SDS011;46248;58.364;25.582;2023-06-04T11:02:10;1.08;;;0.98;;
59766;SDS011;46248;58.364;25.582;2023-06-04T11:05:34;1.15;;;1.00;;
59766;SDS011;46248;58.364;25.582;2023-06-04T11:09:01;3.75;;;1.23;;
59766;SDS011;46248;58.364;25.582;2023-06-04T11:12:27;1.00;;;0.75;;
59766;SDS011;46248;58.364;25.582;2023-06-04T11:15:49;1.40;;;0.90;;
59766;SDS011;46248;58.364;25.582;2023-06-04T11:19:12;0.68;;;0.68;;
59766;SDS011;46248;58.364;25.582;2023-06-04T11:22:34;3.45;;;0.90;;
59766;SDS011;46248;58.364;25.582;2023-06-04T11:25:57;1.88;;;0.90;;
59766;SDS011;46248;58.364;25.582;2023-06-04T11:29:21;1.63;;;0.90;;
59766;SDS011;46248;58.364;25.582;2023-06-04T11:32:45;1.85;;;0.77;;
59766;SDS011;46248;58.364;25.582;2023-06-04T11:36:08;2.10;;;0.88;;
59766;SDS011;46248;58.364;25.582;2023-06-04T11:39:34;0.90;;;0.80;;
59766;SDS011;46248;58.364;25.582;2023-06-04T11:42:59;1.17;;;0.50;;
59766;SDS011;46248;58.364;25.582;2023-06-04T11:46:24;0.98;;;0.98;;
59766;SDS011;46248;58.364;25.582;2023-06-04T11:49:46;1.27;;;0.68;;
59766;SDS011;46248;58.364;25.582;2023-06-04T11:53:09;1.23;;;0.60;;
59766;SDS011;46248;58.364;25.582;2023-06-04T11:56:32;0.50;;;0.50;;
59766;SDS011;46248;58.364;25.582;2023-06-04T11:59:55;1.38;;;0.80;;
59766;SDS011;46248;58.364;25.582;2023-06-04T12:03:20;1.73;;;0.43;;
59766;SDS011;46248;58.364;25.582;2023-06-04T12:06:56;1.48;;;0.80;;
59766;SDS011;46248;58.364;25.582;2023-06-04T12:10:20;0.70;;;0.52;;
59766;SDS011;46248;58.364;25.582;2023-06-04T12:13:45;1.77;;;0.63;;
59766;SDS011;46248;58.364;25.582;2023-06-04T12:17:08;3.25;;;0.80;;
59766;SDS011;46248;58.364;25.582;2023-06-04T12:20:36;2.78;;;0.90;;
59766;SDS011;46248;58.364;25.582;2023-06-04T12:24:07;0.82;;;0.80;;
59766;SDS011;46248;58.364;25.582;2023-06-04T12:27:32;0.77;;;0.77;;
59766;SDS011;46248;58.364;25.582;2023-06-04T12:30:55;3.45;;;1.13;;
59766;SDS011;46248;58.364;25.582;2023-06-04T12:34:18;1.67;;;0.90;;
59766;SDS011;46248;58.364;25.582;2023-06-04T12:37:42;0.80;;;0.80;;
59766;SDS011;46248;58.364;25.582;2023-06-04T12:41:06;0.55;;;0.55;;
59766;SDS011;46248;58.364;25.582;2023-06-04T12:44:28;4.93;;;3.72;;
59766;SDS011;46248;58.364;25.582;2023-06-04T12:47:55;1.75;;;1.48;;
59766;SDS011;46248;58.364;25.582;2023-06-04T12:51:18;0.90;;;0.90;;
59766;SDS011;46248;58.364;25.582;2023-06-04T12:54:43;3.50;;;2.70;;
59766;SDS011;46248;58.364;25.582;2023-06-04T12:58:06;1.10;;;1.02;;
59766;SDS011;46248;58.364;25.582;2023-06-04T13:01:29;0.60;;;0.50;;
59766;SDS011;46248;58.364;25.582;2023-06-04T13:04:52;1.50;;;1.30;;
59766;SDS011;46248;58.364;25.582;2023-06-04T13:08:16;1.27;;;0.90;;
59766;SDS011;46248;58.364;25.582;2023-06-04T13:11:42;0.80;;;0.50;;
59766;SDS011;46248;58.364;25.582;2023-06-04T13:15:06;1.10;;;1.00;;
59766;SDS011;46248;58.364;25.582;2023-06-04T13:18:29;2.55;;;2.03;;
59766;SDS011;46248;58.364;25.582;2023-06-04T13:21:52;1.48;;;1.30;;
59766;SDS011;46248;58.364;25.582;2023-06-04T13:25:15;2.95;;;1.55;;
59766;SDS011;46248;58.364;25.582;2023-06-04T13:28:40;0.82;;;0.73;;
59766;SDS011;46248;58.364;25.582;2023-06-04T13:32:03;1.35;;;0.45;;
59766;SDS011;46248;58.364;25.582;2023-06-04T13:35:26;0.90;;;0.90;;
59766;SDS011;46248;58.364;25.582;2023-06-04T13:38:49;2.15;;;2.05;;
59766;SDS011;46248;58.364;25.582;2023-06-04T13:42:15;9.98;;;5.30;;
59766;SDS011;46248;58.364;25.582;2023-06-04T13:45:39;11.23;;;6.40;;
59766;SDS011;46248;58.364;25.582;2023-06-04T13:49:05;3.35;;;2.10;;
59766;SDS011;46248;58.364;25.582;2023-06-04T13:52:27;1.80;;;1.70;;
59766;SDS011;46248;58.364;25.582;2023-06-04T13:55:50;1.13;;;0.68;;
59766;SDS011;46248;58.364;25.582;2023-06-04T13:59:18;1.93;;;0.90;;
59766;SDS011;46248;58.364;25.582;2023-06-04T14:02:43;1.23;;;1.00;;
59766;SDS011;46248;58.364;25.582;2023-06-04T14:06:05;1.25;;;1.00;;
59766;SDS011;46248;58.364;25.582;2023-06-04T14:09:33;2.22;;;1.50;;
59766;SDS011;46248;58.364;25.582;2023-06-04T14:12:56;0.73;;;0.70;;
59766;SDS011;46248;58.364;25.582;2023-06-04T14:16:19;0.77;;;0.70;;
59766;SDS011;46248;58.364;25.582;2023-06-04T14:19:43;1.00;;;0.70;;
59766;SDS011;46248;58.364;25.582;2023-06-04T14:23:06;0.60;;;0.60;;
59766;SDS011;46248;58.364;25.582;2023-06-04T14:26:29;1.00;;;0.82;;
59766;SDS011;46248;58.364;25.582;2023-06-04T14:29:52;2.58;;;0.90;;
59766;SDS011;46248;58.364;25.582;2023-06-04T14:33:15;3.25;;;1.75;;
59766;SDS011;46248;58.364;25.582;2023-06-04T14:36:39;2.33;;;0.88;;
59766;SDS011;46248;58.364;25.582;2023-06-04T14:40:02;13.05;;;6.65;;
59766;SDS011;46248;58.364;25.582;2023-06-04T14:43:26;7.85;;;5.40;;
59766;SDS011;46248;58.364;25.582;2023-06-04T14:46:50;1.45;;;1.35;;
59766;SDS011;46248;58.364;25.582;2023-06-04T14:50:13;0.75;;;0.60;;
59766;SDS011;46248;58.364;25.582;2023-06-04T14:53:37;1.10;;;0.70;;
59766;SDS011;46248;58.364;25.582;2023-06-04T14:57:01;2.47;;;0.85;;
59766;SDS011;46248;58.364;25.582;2023-06-04T15:00:24;3.38;;;1.08;;
59766;SDS011;46248;58.364;25.582;2023-06-04T15:03:46;10.48;;;5.43;;
59766;SDS011;46248;58.364;25.582;2023-06-04T15:07:09;19.33;;;9.90;;
59766;SDS011;46248;58.364;25.582;2023-06-04T15:10:33;0.93;;;0.77;;
59766;SDS011;46248;58.364;25.582;2023-06-04T15:13:56;1.80;;;0.98;;
59766;SDS011;46248;58.364;25.582;2023-06-04T15:17:19;0.35;;;0.35;;
59766;SDS011;46248;58.364;25.582;2023-06-04T15:20:43;0.65;;;0.40;;
59766;SDS011;46248;58.364;25.582;2023-06-04T15:24:05;1.25;;;0.80;;
59766;SDS011;46248;58.364;25.582;2023-06-04T15:27:31;0.75;;;0.50;;
59766;SDS011;46248;58.364;25.582;2023-06-04T15:30:54;3.75;;;1.98;;
59766;SDS011;46248;58.364;25.582;2023-06-04T15:34:17;3.30;;;1.42;;
59766;SDS011;46248;58.364;25.582;2023-06-04T15:37:40;1.05;;;0.90;;
59766;SDS011;46248;58.364;25.582;2023-06-04T15:41:03;0.50;;;0.50;;
59766;SDS011;46248;58.364;25.582;2023-06-04T15:44:28;2.10;;;0.90;;
59766;SDS011;46248;58.364;25.582;2023-06-04T15:47:51;4.00;;;2.13;;
59766;SDS011;46248;58.364;25.582;2023-06-04T15:51:14;2.50;;;2.28;;
59766;SDS011;46248;58.364;25.582;2023-06-04T15:54:37;2.55;;;1.55;;
59766;SDS011;46248;58.364;25.582;2023-06-04T15:58:06;1.35;;;0.80;;
59766;SDS011;46248;58.364;25.582;2023-06-04T16:01:30;1.88;;;0.70;;
59766;SDS011;46248;58.364;25.582;2023-06-04T16:04:54;1.45;;;0.68;;
59766;SDS011;46248;58.364;25.582;2023-06-04T16:08:17;1.10;;;0.68;;
59766;SDS011;46248;58.364;25.582;2023-06-04T16:11:40;1.85;;;0.90;;
59766;SDS011;46248;58.364;25.582;2023-06-04T16:15:04;1.95;;;1.20;;
59766;SDS011;46248;58.364;25.582;2023-06-04T16:18:29;1.92;;;0.93;;
59766;SDS011;46248;58.364;25.582;2023-06-04T16:21:52;1.00;;;0.80;;
59766;SDS011;46248;58.364;25.582;2023-06-04T16:25:15;0.60;;;0.60;;
59766;SDS011;46248;58.364;25.582;2023-06-04T16:28:40;1.77;;;0.40;;
59766;SDS011;46248;58.364;25.582;2023-06-04T16:32:03;0.50;;;0.50;;
59766;SDS011;46248;58.364;25.582;2023-06-04T16:35:28;1.00;;;0.40;;
59766;SDS011;46248;58.364;25.582;2023-06-04T16:38:52;0.52;;;0.38;;
59766;SDS011;46248;58.364;25.582;2023-06-04T16:42:15;1.48;;;0.45;;
59766;SDS011;46248;58.364;25.582;2023-06-04T16:45:38;1.50;;;0.60;;
59766;SDS011;46248;58.364;25.582;2023-06-04T16:49:01;1.52;;;0.47;;
59766;SDS011;46248;58.364;25.582;2023-06-04T16:52:26;3.88;;;1.00;;
59766;SDS011;46248;58.364;25.582;2023-06-04T16:55:49;1.02;;;0.52;;
59766;SDS011;46248;58.364;25.582;2023-06-04T16:59:11;1.70;;;0.60;;
59766;SDS011;46248;58.364;25.582;2023-06-04T17:02:34;2.72;;;0.95;;
59766;SDS011;46248;58.364;25.582;2023-06-04T17:05:57;1.50;;;0.77;;
59766;SDS011;46248;58.364;25.582;2023-06-04T17:09:22;2.22;;;1.13;;
59766;SDS011;46248;58.364;25.582;2023-06-04T17:12:45;3.03;;;1.20;;
59766;SDS011;46248;58.364;25.582;2023-06-04T17:16:08;2.90;;;1.30;;
59766;SDS011;46248;58.364;25.582;2023-06-04T17:19:30;2.03;;;0.57;;
59766;SDS011;46248;58.364;25.582;2023-06-04T17:22:54;0.93;;;0.50;;
59766;SDS011;46248;58.364;25.582;2023-06-04T17:26:18;0.77;;;0.63;;
59766;SDS011;46248;58.364;25.582;2023-06-04T17:29:42;3.17;;;0.70;;
59766;SDS011;46248;58.364;25.582;2023-06-04T17:33:05;0.55;;;0.50;;
59766;SDS011;46248;58.364;25.582;2023-06-04T17:36:30;0.98;;;0.50;;
59766;SDS011;46248;58.364;25.582;2023-06-04T17:39:53;1.83;;;0.50;;
59766;SDS011;46248;58.364;25.582;2023-06-04T17:43:17;1.05;;;0.80;;
59766;SDS011;46248;58.364;25.582;2023-06-04T17:46:40;2.42;;;1.08;;
59766;SDS011;46248;58.364;25.582;2023-06-04T17:50:03;2.70;;;0.85;;
59766;SDS011;46248;58.364;25.582;2023-06-04T17:53:29;0.68;;;0.68;;
59766;SDS011;46248;58.364;25.582;2023-06-04T17:56:52;0.40;;;0.40;;
59766;SDS011;46248;58.364;25.582;2023-06-04T18:00:17;3.60;;;0.45;;
59766;SDS011;46248;58.364;25.582;2023-06-04T18:03:40;2.15;;;0.55;;
59766;SDS011;46248;58.364;25.582;2023-06-04T18:07:04;0.82;;;0.50;;
59766;SDS011;46248;58.364;25.582;2023-06-04T18:10:26;0.63;;;0.43;;
59766;SDS011;46248;58.364;25.582;2023-06-04T18:13:49;1.20;;;0.60;;
59766;SDS011;46248;58.364;25.582;2023-06-04T18:17:14;0.50;;;0.50;;
59766;SDS011;46248;58.364;25.582;2023-06-04T18:20:36;0.88;;;0.57;;
59766;SDS011;46248;58.364;25.582;2023-06-04T18:24:01;1.50;;;0.77;;
59766;SDS011;46248;58.364;25.582;2023-06-04T18:27:25;1.67;;;0.80;;
59766;SDS011;46248;58.364;25.582;2023-06-04T18:30:48;1.05;;;0.40;;
59766;SDS011;46248;58.364;25.582;2023-06-04T18:34:12;1.85;;;0.45;;
59766;SDS011;46248;58.364;25.582;2023-06-04T18:37:40;0.20;;;0.20;;
59766;SDS011;46248;58.364;25.582;2023-06-04T18:41:04;0.88;;;0.25;;
59766;SDS011;46248;58.364;25.582;2023-06-04T18:44:29;1.65;;;0.50;;
59766;SDS011;46248;58.364;25.582;2023-06-04T18:47:52;0.80;;;0.40;;
59766;SDS011;46248;58.364;25.582;2023-06-04T18:51:17;0.90;;;0.43;;
59766;SDS011;46248;58.364;25.582;2023-06-04T18:54:40;1.20;;;0.50;;
59766;SDS011;46248;58.364;25.582;2023-06-04T18:58:05;2.58;;;1.08;;
59766;SDS011;46248;58.364;25.582;2023-06-04T19:01:30;0.93;;;0.80;;
59766;SDS011;46248;58.364;25.582;2023-06-04T19:04:53;1.83;;;0.70;;
59766;SDS011;46248;58.364;25.582;2023-06-04T19:08:17;2.75;;;0.70;;
59766;SDS011;46248;58.364;25.582;2023-06-04T19:11:41;1.02;;;0.98;;
59766;SDS011;46248;58.364;25.582;2023-06-04T19:15:05;2.28;;;0.70;;
59766;SDS011;46248;58.364;25.582;2023-06-04T19:18:29;2.17;;;0.60;;
59766;SDS011;46248;58.364;25.582;2023-06-04T19:21:52;0.70;;;0.70;;
59766;SDS011;46248;58.364;25.582;2023-06-04T19:25:17;3.60;;;1.05;;
59766;SDS011;46248;58.364;25.582;2023-06-04T19:28:40;0.45;;;0.45;;
59766;SDS011;46248;58.364;25.582;2023-06-04T19:32:03;0.88;;;0.85;;
59766;SDS011;46248;58.364;25.582;2023-06-04T19:35:27;0.40;;;0.40;;
59766;SDS011;46248;58.364;25.582;2023-06-04T19:38:50;0.82;;;0.50;;
59766;SDS011;46248;58.364;25.582;2023-06-04T19:46:48;0.30;;;0.30;;
59766;SDS011;46248;58.364;25.582;2023-06-04T19:50:11;0.40;;;0.38;;
59766;SDS011;46248;58.364;25.582;2023-06-04T19:53:35;1.60;;;0.60;;
59766;SDS011;46248;58.364;25.582;2023-06-04T19:56:58;0.50;;;0.50;;
59766;SDS011;46248;58.364;25.582;2023-06-04T20:00:22;0.52;;;0.52;;
59766;SDS011;46248;58.364;25.582;2023-06-04T20:03:46;0.45;;;0.38;;
59766;SDS011;46248;58.364;25.582;2023-06-04T20:07:09;0.20;;;0.20;;
59766;SDS011;46248;58.364;25.582;2023-06-04T20:10:33;0.68;;;0.40;;
59766;SDS011;46248;58.364;25.582;2023-06-04T20:13:56;1.02;;;0.20;;
59766;SDS011;46248;58.364;25.582;2023-06-04T20:17:19;0.65;;;0.20;;
59766;SDS011;46248;58.364;25.582;2023-06-04T20:20:44;0.75;;;0.30;;